Butaritari, Kiribati
Current Conditions -  °F | °C
As of 1:00 AM on Friday 24 Oct 2014 (Local Time) from NGTT Reporting Station
Few Clouds Few Clouds  
Wind Chill: 82°   Ceiling: Unl
Heat Index: 88°   Visibility: 6mi
Dew Point: 73°   Wind: 7mph
Humidity: 74%   Direction: 110°ESE
Pressure: 29.8"   Gusts: NA
Location:  3.08°N, 172.79°E
Report Text: NGTT 231300Z 11006KT 9999 FEW020 28/23 Q1009
Loading
Personal Weather Stations






























Interactive Weather Map
Tropical Storm Tracking
New forecast layout! Learn more

10-Day Weather Forecast

Advertisements
Track Severe Weather on mobile